sensor_id;sensor_type;location;lat;lon;timestamp;P1;durP1;ratioP1;P2;durP2;ratioP2
36659;SDS011;22654;51.054;3.654;2022-12-18T00:01:17;124.43;;;64.23;;
36659;SDS011;22654;51.054;3.654;2022-12-18T00:03:45;129.97;;;65.93;;
36659;SDS011;22654;51.054;3.654;2022-12-18T00:06:13;116.57;;;63.07;;
36659;SDS011;22654;51.054;3.654;2022-12-18T00:08:40;115.60;;;61.13;;
36659;SDS011;22654;51.054;3.654;2022-12-18T00:11:07;112.33;;;63.23;;
36659;SDS011;22654;51.054;3.654;2022-12-18T00:13:36;122.17;;;62.63;;
36659;SDS011;22654;51.054;3.654;2022-12-18T00:16:02;122.30;;;66.00;;
36659;SDS011;22654;51.054;3.654;2022-12-18T00:18:29;121.60;;;63.93;;
36659;SDS011;22654;51.054;3.654;2022-12-18T00:20:58;108.07;;;59.80;;
36659;SDS011;22654;51.054;3.654;2022-12-18T00:23:26;112.97;;;63.27;;
36659;SDS011;22654;51.054;3.654;2022-12-18T00:25:52;113.03;;;62.60;;
36659;SDS011;22654;51.054;3.654;2022-12-18T00:28:18;121.73;;;61.37;;
36659;SDS011;22654;51.054;3.654;2022-12-18T00:30:48;119.20;;;64.60;;
36659;SDS011;22654;51.054;3.654;2022-12-18T00:33:17;121.82;;;63.00;;
36659;SDS011;22654;51.054;3.654;2022-12-18T00:35:43;118.33;;;62.67;;
36659;SDS011;22654;51.054;3.654;2022-12-18T00:38:09;115.67;;;63.53;;
36659;SDS011;22654;51.054;3.654;2022-12-18T00:40:35;118.23;;;64.77;;
36659;SDS011;22654;51.054;3.654;2022-12-18T00:43:00;113.03;;;60.20;;
36659;SDS011;22654;51.054;3.654;2022-12-18T00:45:30;118.17;;;61.97;;
36659;SDS011;22654;51.054;3.654;2022-12-18T00:47:56;105.60;;;59.27;;
36659;SDS011;22654;51.054;3.654;2022-12-18T00:50:23;114.43;;;60.77;;
36659;SDS011;22654;51.054;3.654;2022-12-18T00:52:50;107.93;;;58.97;;
36659;SDS011;22654;51.054;3.654;2022-12-18T00:55:16;110.27;;;63.17;;
36659;SDS011;22654;51.054;3.654;2022-12-18T00:57:42;119.03;;;62.17;;
36659;SDS011;22654;51.054;3.654;2022-12-18T01:00:10;108.97;;;61.73;;
36659;SDS011;22654;51.054;3.654;2022-12-18T01:02:39;106.80;;;61.03;;
36659;SDS011;22654;51.054;3.654;2022-12-18T01:05:06;122.07;;;64.53;;
36659;SDS011;22654;51.054;3.654;2022-12-18T01:07:33;119.50;;;61.50;;
36659;SDS011;22654;51.054;3.654;2022-12-18T01:10:01;114.50;;;63.17;;
36659;SDS011;22654;51.054;3.654;2022-12-18T01:12:27;109.23;;;61.47;;
36659;SDS011;22654;51.054;3.654;2022-12-18T01:14:53;117.10;;;62.80;;
36659;SDS011;22654;51.054;3.654;2022-12-18T01:17:19;103.67;;;61.30;;
36659;SDS011;22654;51.054;3.654;2022-12-18T01:19:45;116.93;;;60.93;;
36659;SDS011;22654;51.054;3.654;2022-12-18T01:22:11;119.77;;;60.93;;
36659;SDS011;22654;51.054;3.654;2022-12-18T01:24:37;111.07;;;60.43;;
36659;SDS011;22654;51.054;3.654;2022-12-18T01:27:03;110.80;;;61.27;;
36659;SDS011;22654;51.054;3.654;2022-12-18T01:29:28;113.57;;;60.63;;
36659;SDS011;22654;51.054;3.654;2022-12-18T01:31:55;114.87;;;60.63;;
36659;SDS011;22654;51.054;3.654;2022-12-18T01:34:22;114.23;;;59.20;;
36659;SDS011;22654;51.054;3.654;2022-12-18T01:36:48;113.73;;;57.00;;
36659;SDS011;22654;51.054;3.654;2022-12-18T01:39:14;109.87;;;56.30;;
36659;SDS011;22654;51.054;3.654;2022-12-18T01:41:41;98.77;;;55.10;;
36659;SDS011;22654;51.054;3.654;2022-12-18T01:49:53;111.32;;;55.50;;
36659;SDS011;22654;51.054;3.654;2022-12-18T01:52:20;95.27;;;53.90;;
36659;SDS011;22654;51.054;3.654;2022-12-18T01:54:47;107.40;;;55.33;;
36659;SDS011;22654;51.054;3.654;2022-12-18T01:57:16;97.13;;;53.10;;
36659;SDS011;22654;51.054;3.654;2022-12-18T01:59:42;105.47;;;55.57;;
36659;SDS011;22654;51.054;3.654;2022-12-18T02:02:12;103.63;;;54.63;;
36659;SDS011;22654;51.054;3.654;2022-12-18T02:04:40;97.03;;;51.07;;
36659;SDS011;22654;51.054;3.654;2022-12-18T02:09:54;100.13;;;51.57;;
36659;SDS011;22654;51.054;3.654;2022-12-18T02:12:43;100.83;;;51.70;;
36659;SDS011;22654;51.054;3.654;2022-12-18T02:17:57;99.68;;;56.00;;
36659;SDS011;22654;51.054;3.654;2022-12-18T02:23:01;111.13;;;52.93;;
36659;SDS011;22654;51.054;3.654;2022-12-18T02:28:09;108.90;;;54.83;;
36659;SDS011;22654;51.054;3.654;2022-12-18T02:30:38;98.07;;;53.38;;
36659;SDS011;22654;51.054;3.654;2022-12-18T02:33:07;101.40;;;54.37;;
36659;SDS011;22654;51.054;3.654;2022-12-18T02:35:37;103.63;;;53.67;;
36659;SDS011;22654;51.054;3.654;2022-12-18T02:38:05;104.27;;;55.60;;
36659;SDS011;22654;51.054;3.654;2022-12-18T02:40:37;96.07;;;51.33;;
36659;SDS011;22654;51.054;3.654;2022-12-18T02:45:33;100.13;;;51.67;;
36659;SDS011;22654;51.054;3.654;2022-12-18T02:47:59;102.63;;;53.03;;
36659;SDS011;22654;51.054;3.654;2022-12-18T02:56:03;97.33;;;49.63;;
36659;SDS011;22654;51.054;3.654;2022-12-18T03:01:55;87.83;;;45.97;;
36659;SDS011;22654;51.054;3.654;2022-12-18T03:07:28;82.07;;;42.70;;
36659;SDS011;22654;51.054;3.654;2022-12-18T03:10:05;88.10;;;44.07;;
36659;SDS011;22654;51.054;3.654;2022-12-18T03:12:37;78.07;;;43.53;;
36659;SDS011;22654;51.054;3.654;2022-12-18T03:15:13;89.93;;;43.37;;
36659;SDS011;22654;51.054;3.654;2022-12-18T03:17:42;80.40;;;47.10;;
36659;SDS011;22654;51.054;3.654;2022-12-18T03:20:19;85.50;;;43.33;;
36659;SDS011;22654;51.054;3.654;2022-12-18T03:22:46;82.07;;;44.83;;
36659;SDS011;22654;51.054;3.654;2022-12-18T03:25:19;90.60;;;47.73;;
36659;SDS011;22654;51.054;3.654;2022-12-18T03:27:47;85.77;;;46.43;;
36659;SDS011;22654;51.054;3.654;2022-12-18T03:30:15;81.77;;;45.23;;
36659;SDS011;22654;51.054;3.654;2022-12-18T03:33:04;85.37;;;44.77;;
36659;SDS011;22654;51.054;3.654;2022-12-18T03:35:40;83.27;;;44.13;;
36659;SDS011;22654;51.054;3.654;2022-12-18T03:38:09;90.50;;;47.73;;
36659;SDS011;22654;51.054;3.654;2022-12-18T03:40:43;82.90;;;44.35;;
36659;SDS011;22654;51.054;3.654;2022-12-18T03:46:15;83.10;;;43.00;;
36659;SDS011;22654;51.054;3.654;2022-12-18T03:48:48;77.57;;;42.80;;
36659;SDS011;22654;51.054;3.654;2022-12-18T03:51:27;77.23;;;42.37;;
36659;SDS011;22654;51.054;3.654;2022-12-18T03:54:01;73.40;;;39.20;;
36659;SDS011;22654;51.054;3.654;2022-12-18T03:56:42;75.63;;;40.90;;
36659;SDS011;22654;51.054;3.654;2022-12-18T03:59:22;81.33;;;40.17;;
36659;SDS011;22654;51.054;3.654;2022-12-18T04:01:50;76.93;;;41.43;;
36659;SDS011;22654;51.054;3.654;2022-12-18T04:04:18;74.33;;;38.73;;
36659;SDS011;22654;51.054;3.654;2022-12-18T04:06:46;73.97;;;40.57;;
36659;SDS011;22654;51.054;3.654;2022-12-18T04:09:16;70.43;;;40.03;;
36659;SDS011;22654;51.054;3.654;2022-12-18T04:11:46;69.63;;;38.20;;
36659;SDS011;22654;51.054;3.654;2022-12-18T04:14:13;77.40;;;40.07;;
36659;SDS011;22654;51.054;3.654;2022-12-18T04:16:40;78.70;;;38.47;;
36659;SDS011;22654;51.054;3.654;2022-12-18T04:19:09;72.63;;;38.13;;
36659;SDS011;22654;51.054;3.654;2022-12-18T04:21:39;62.47;;;34.03;;
36659;SDS011;22654;51.054;3.654;2022-12-18T04:24:05;64.40;;;34.93;;
36659;SDS011;22654;51.054;3.654;2022-12-18T04:26:34;70.90;;;36.57;;
36659;SDS011;22654;51.054;3.654;2022-12-18T04:29:11;68.00;;;39.13;;
36659;SDS011;22654;51.054;3.654;2022-12-18T04:31:37;62.83;;;36.13;;
36659;SDS011;22654;51.054;3.654;2022-12-18T04:34:04;61.27;;;36.27;;
36659;SDS011;22654;51.054;3.654;2022-12-18T04:36:36;65.93;;;35.10;;
36659;SDS011;22654;51.054;3.654;2022-12-18T04:39:02;63.87;;;34.23;;
36659;SDS011;22654;51.054;3.654;2022-12-18T04:41:29;62.00;;;32.37;;
36659;SDS011;22654;51.054;3.654;2022-12-18T04:43:55;64.50;;;33.17;;
36659;SDS011;22654;51.054;3.654;2022-12-18T04:46:21;62.00;;;34.17;;
36659;SDS011;22654;51.054;3.654;2022-12-18T04:48:47;61.23;;;35.50;;
36659;SDS011;22654;51.054;3.654;2022-12-18T04:51:13;74.20;;;36.67;;
36659;SDS011;22654;51.054;3.654;2022-12-18T04:53:38;62.93;;;35.00;;
36659;SDS011;22654;51.054;3.654;2022-12-18T04:56:11;63.83;;;35.83;;
36659;SDS011;22654;51.054;3.654;2022-12-18T04:58:39;63.13;;;36.13;;
36659;SDS011;22654;51.054;3.654;2022-12-18T05:01:06;62.83;;;35.00;;
36659;SDS011;22654;51.054;3.654;2022-12-18T05:03:32;58.43;;;34.30;;
36659;SDS011;22654;51.054;3.654;2022-12-18T05:05:59;64.93;;;34.90;;
36659;SDS011;22654;51.054;3.654;2022-12-18T05:08:25;64.70;;;35.20;;
36659;SDS011;22654;51.054;3.654;2022-12-18T05:11:00;58.37;;;35.00;;
36659;SDS011;22654;51.054;3.654;2022-12-18T05:13:28;63.33;;;33.60;;
36659;SDS011;22654;51.054;3.654;2022-12-18T05:15:54;64.23;;;32.87;;
36659;SDS011;22654;51.054;3.654;2022-12-18T05:18:21;61.20;;;34.47;;
36659;SDS011;22654;51.054;3.654;2022-12-18T05:20:50;62.23;;;31.73;;
36659;SDS011;22654;51.054;3.654;2022-12-18T05:23:18;60.50;;;32.23;;
36659;SDS011;22654;51.054;3.654;2022-12-18T05:25:51;54.63;;;30.93;;
36659;SDS011;22654;51.054;3.654;2022-12-18T05:28:17;66.53;;;34.73;;
36659;SDS011;22654;51.054;3.654;2022-12-18T05:30:46;60.97;;;31.70;;
36659;SDS011;22654;51.054;3.654;2022-12-18T05:33:17;58.80;;;31.90;;
36659;SDS011;22654;51.054;3.654;2022-12-18T05:35:43;55.40;;;31.93;;
36659;SDS011;22654;51.054;3.654;2022-12-18T05:38:10;56.67;;;29.70;;
36659;SDS011;22654;51.054;3.654;2022-12-18T05:40:35;52.43;;;32.13;;
36659;SDS011;22654;51.054;3.654;2022-12-18T05:43:01;61.30;;;33.83;;
36659;SDS011;22654;51.054;3.654;2022-12-18T05:45:27;65.40;;;36.30;;
36659;SDS011;22654;51.054;3.654;2022-12-18T05:47:53;57.37;;;34.93;;
36659;SDS011;22654;51.054;3.654;2022-12-18T05:50:19;55.63;;;33.07;;
36659;SDS011;22654;51.054;3.654;2022-12-18T05:52:45;62.97;;;32.70;;
36659;SDS011;22654;51.054;3.654;2022-12-18T05:55:10;60.87;;;32.80;;
36659;SDS011;22654;51.054;3.654;2022-12-18T05:57:36;55.30;;;32.67;;
36659;SDS011;22654;51.054;3.654;2022-12-18T06:00:03;58.53;;;35.63;;
36659;SDS011;22654;51.054;3.654;2022-12-18T06:02:37;58.33;;;31.70;;
36659;SDS011;22654;51.054;3.654;2022-12-18T06:05:03;57.00;;;34.20;;
36659;SDS011;22654;51.054;3.654;2022-12-18T06:07:29;55.43;;;30.80;;
36659;SDS011;22654;51.054;3.654;2022-12-18T06:09:55;54.50;;;31.60;;
36659;SDS011;22654;51.054;3.654;2022-12-18T06:12:21;58.47;;;30.57;;
36659;SDS011;22654;51.054;3.654;2022-12-18T06:14:47;52.40;;;30.40;;
36659;SDS011;22654;51.054;3.654;2022-12-18T06:17:12;63.67;;;30.70;;
36659;SDS011;22654;51.054;3.654;2022-12-18T06:19:38;53.40;;;28.27;;
36659;SDS011;22654;51.054;3.654;2022-12-18T06:22:04;51.47;;;31.17;;
36659;SDS011;22654;51.054;3.654;2022-12-18T06:24:30;52.00;;;29.20;;
36659;SDS011;22654;51.054;3.654;2022-12-18T06:26:56;53.50;;;28.80;;
36659;SDS011;22654;51.054;3.654;2022-12-18T06:29:22;44.83;;;28.13;;
36659;SDS011;22654;51.054;3.654;2022-12-18T06:31:48;49.57;;;28.73;;
36659;SDS011;22654;51.054;3.654;2022-12-18T06:34:13;48.97;;;29.40;;
36659;SDS011;22654;51.054;3.654;2022-12-18T06:36:39;49.67;;;27.23;;
36659;SDS011;22654;51.054;3.654;2022-12-18T06:39:05;46.17;;;26.73;;
36659;SDS011;22654;51.054;3.654;2022-12-18T06:41:31;44.03;;;25.53;;
36659;SDS011;22654;51.054;3.654;2022-12-18T06:43:57;39.43;;;25.07;;
36659;SDS011;22654;51.054;3.654;2022-12-18T06:46:22;43.70;;;26.30;;
36659;SDS011;22654;51.054;3.654;2022-12-18T06:48:49;36.27;;;24.13;;
36659;SDS011;22654;51.054;3.654;2022-12-18T06:51:16;38.77;;;26.23;;
36659;SDS011;22654;51.054;3.654;2022-12-18T06:53:43;39.53;;;24.20;;
36659;SDS011;22654;51.054;3.654;2022-12-18T06:56:09;41.53;;;25.30;;
36659;SDS011;22654;51.054;3.654;2022-12-18T06:58:35;42.40;;;25.10;;
36659;SDS011;22654;51.054;3.654;2022-12-18T07:01:05;44.40;;;26.47;;
36659;SDS011;22654;51.054;3.654;2022-12-18T07:03:33;42.87;;;24.63;;
36659;SDS011;22654;51.054;3.654;2022-12-18T07:05:59;41.10;;;24.70;;
36659;SDS011;22654;51.054;3.654;2022-12-18T07:08:25;37.43;;;24.33;;
36659;SDS011;22654;51.054;3.654;2022-12-18T07:10:51;41.90;;;24.60;;
36659;SDS011;22654;51.054;3.654;2022-12-18T07:13:18;43.07;;;25.30;;
36659;SDS011;22654;51.054;3.654;2022-12-18T07:15:43;42.87;;;24.73;;
36659;SDS011;22654;51.054;3.654;2022-12-18T07:18:09;35.90;;;22.40;;
36659;SDS011;22654;51.054;3.654;2022-12-18T07:20:36;42.90;;;25.57;;
36659;SDS011;22654;51.054;3.654;2022-12-18T07:23:02;39.33;;;24.27;;
36659;SDS011;22654;51.054;3.654;2022-12-18T07:25:29;42.50;;;24.60;;
36659;SDS011;22654;51.054;3.654;2022-12-18T07:27:54;40.43;;;26.67;;
36659;SDS011;22654;51.054;3.654;2022-12-18T07:30:20;46.40;;;24.83;;
36659;SDS011;22654;51.054;3.654;2022-12-18T07:32:46;45.83;;;28.63;;
36659;SDS011;22654;51.054;3.654;2022-12-18T07:35:12;37.03;;;24.47;;
36659;SDS011;22654;51.054;3.654;2022-12-18T07:37:38;35.00;;;22.47;;
36659;SDS011;22654;51.054;3.654;2022-12-18T07:40:03;34.67;;;22.30;;
36659;SDS011;22654;51.054;3.654;2022-12-18T07:42:30;32.33;;;21.10;;
36659;SDS011;22654;51.054;3.654;2022-12-18T07:44:56;33.13;;;22.33;;
36659;SDS011;22654;51.054;3.654;2022-12-18T07:47:22;32.10;;;22.37;;
36659;SDS011;22654;51.054;3.654;2022-12-18T07:49:48;35.33;;;23.30;;
36659;SDS011;22654;51.054;3.654;2022-12-18T07:52:14;34.70;;;23.17;;
36659;SDS011;22654;51.054;3.654;2022-12-18T07:54:40;33.33;;;23.23;;
36659;SDS011;22654;51.054;3.654;2022-12-18T07:57:06;33.90;;;22.00;;
36659;SDS011;22654;51.054;3.654;2022-12-18T07:59:32;29.50;;;21.30;;
36659;SDS011;22654;51.054;3.654;2022-12-18T08:01:58;31.53;;;21.07;;
36659;SDS011;22654;51.054;3.654;2022-12-18T08:04:24;34.47;;;21.97;;
36659;SDS011;22654;51.054;3.654;2022-12-18T08:06:50;32.00;;;20.03;;
36659;SDS011;22654;51.054;3.654;2022-12-18T08:09:17;34.40;;;19.97;;
36659;SDS011;22654;51.054;3.654;2022-12-18T08:11:43;32.63;;;20.60;;
36659;SDS011;22654;51.054;3.654;2022-12-18T08:14:09;30.33;;;21.87;;
36659;SDS011;22654;51.054;3.654;2022-12-18T08:16:35;34.97;;;22.00;;
36659;SDS011;22654;51.054;3.654;2022-12-18T08:19:01;34.80;;;22.40;;
36659;SDS011;22654;51.054;3.654;2022-12-18T08:21:28;32.80;;;20.87;;
36659;SDS011;22654;51.054;3.654;2022-12-18T08:23:56;28.40;;;20.00;;
36659;SDS011;22654;51.054;3.654;2022-12-18T08:26:25;35.33;;;21.93;;
36659;SDS011;22654;51.054;3.654;2022-12-18T08:28:53;34.53;;;21.00;;
36659;SDS011;22654;51.054;3.654;2022-12-18T08:31:20;33.03;;;22.53;;
36659;SDS011;22654;51.054;3.654;2022-12-18T08:33:50;28.73;;;20.47;;
36659;SDS011;22654;51.054;3.654;2022-12-18T08:36:17;34.10;;;20.27;;
36659;SDS011;22654;51.054;3.654;2022-12-18T08:38:44;32.50;;;22.20;;
36659;SDS011;22654;51.054;3.654;2022-12-18T08:41:11;30.40;;;21.83;;
36659;SDS011;22654;51.054;3.654;2022-12-18T08:43:38;32.83;;;21.90;;
36659;SDS011;22654;51.054;3.654;2022-12-18T08:46:23;34.63;;;21.10;;
36659;SDS011;22654;51.054;3.654;2022-12-18T08:48:51;30.97;;;21.73;;
36659;SDS011;22654;51.054;3.654;2022-12-18T08:51:19;30.73;;;20.77;;
36659;SDS011;22654;51.054;3.654;2022-12-18T08:53:45;28.90;;;20.90;;
36659;SDS011;22654;51.054;3.654;2022-12-18T08:56:11;30.57;;;19.70;;
36659;SDS011;22654;51.054;3.654;2022-12-18T08:58:38;30.57;;;20.87;;
36659;SDS011;22654;51.054;3.654;2022-12-18T09:01:06;29.90;;;20.83;;
36659;SDS011;22654;51.054;3.654;2022-12-18T09:03:34;25.03;;;19.33;;
36659;SDS011;22654;51.054;3.654;2022-12-18T09:06:00;26.00;;;19.07;;
36659;SDS011;22654;51.054;3.654;2022-12-18T09:08:26;28.40;;;18.70;;
36659;SDS011;22654;51.054;3.654;2022-12-18T09:10:53;29.27;;;19.13;;
36659;SDS011;22654;51.054;3.654;2022-12-18T09:13:20;27.50;;;19.17;;
36659;SDS011;22654;51.054;3.654;2022-12-18T09:15:50;29.47;;;20.23;;
36659;SDS011;22654;51.054;3.654;2022-12-18T09:20:47;25.00;;;17.40;;
36659;SDS011;22654;51.054;3.654;2022-12-18T09:23:13;23.60;;;16.13;;
36659;SDS011;22654;51.054;3.654;2022-12-18T09:25:39;24.93;;;17.63;;
36659;SDS011;22654;51.054;3.654;2022-12-18T09:28:09;27.10;;;19.40;;
36659;SDS011;22654;51.054;3.654;2022-12-18T09:30:39;27.15;;;18.83;;
36659;SDS011;22654;51.054;3.654;2022-12-18T09:33:07;29.25;;;20.05;;
36659;SDS011;22654;51.054;3.654;2022-12-18T09:35:35;27.77;;;18.53;;
36659;SDS011;22654;51.054;3.654;2022-12-18T09:38:06;23.83;;;18.33;;
36659;SDS011;22654;51.054;3.654;2022-12-18T09:40:50;23.47;;;17.37;;
36659;SDS011;22654;51.054;3.654;2022-12-18T09:43:19;24.10;;;17.10;;
36659;SDS011;22654;51.054;3.654;2022-12-18T09:45:53;24.43;;;16.23;;
36659;SDS011;22654;51.054;3.654;2022-12-18T09:48:29;24.53;;;17.27;;
36659;SDS011;22654;51.054;3.654;2022-12-18T09:51:03;23.33;;;16.23;;
36659;SDS011;22654;51.054;3.654;2022-12-18T09:53:37;24.73;;;17.73;;
36659;SDS011;22654;51.054;3.654;2022-12-18T09:56:06;24.80;;;18.57;;
36659;SDS011;22654;51.054;3.654;2022-12-18T09:58:49;22.93;;;18.17;;
36659;SDS011;22654;51.054;3.654;2022-12-18T10:01:29;24.33;;;17.00;;
36659;SDS011;22654;51.054;3.654;2022-12-18T10:03:55;28.30;;;18.57;;
36659;SDS011;22654;51.054;3.654;2022-12-18T10:14:39;23.97;;;17.17;;
36659;SDS011;22654;51.054;3.654;2022-12-18T10:27:51;20.87;;;16.30;;
36659;SDS011;22654;51.054;3.654;2022-12-18T10:30:21;23.80;;;17.15;;
36659;SDS011;22654;51.054;3.654;2022-12-18T10:32:49;24.53;;;17.23;;
36659;SDS011;22654;51.054;3.654;2022-12-18T10:35:17;26.23;;;18.33;;
36659;SDS011;22654;51.054;3.654;2022-12-18T10:38:20;23.67;;;16.88;;
36659;SDS011;22654;51.054;3.654;2022-12-18T10:43:27;26.10;;;17.70;;
36659;SDS011;22654;51.054;3.654;2022-12-18T10:46:00;23.00;;;16.52;;
36659;SDS011;22654;51.054;3.654;2022-12-18T10:48:28;23.08;;;16.42;;
36659;SDS011;22654;51.054;3.654;2022-12-18T10:50:55;24.83;;;18.23;;
36659;SDS011;22654;51.054;3.654;2022-12-18T10:53:23;24.35;;;17.70;;
36659;SDS011;22654;51.054;3.654;2022-12-18T10:55:52;24.63;;;17.40;;
36659;SDS011;22654;51.054;3.654;2022-12-18T11:03:44;22.23;;;16.20;;
36659;SDS011;22654;51.054;3.654;2022-12-18T11:06:18;24.30;;;16.00;;
36659;SDS011;22654;51.054;3.654;2022-12-18T11:11:47;29.30;;;18.05;;
36659;SDS011;22654;51.054;3.654;2022-12-18T11:14:33;25.40;;;17.55;;
36659;SDS011;22654;51.054;3.654;2022-12-18T11:17:22;22.58;;;16.73;;
36659;SDS011;22654;51.054;3.654;2022-12-18T11:19:59;23.80;;;16.70;;
36659;SDS011;22654;51.054;3.654;2022-12-18T11:22:32;24.27;;;17.88;;
36659;SDS011;22654;51.054;3.654;2022-12-18T11:25:01;21.70;;;16.45;;
36659;SDS011;22654;51.054;3.654;2022-12-18T11:27:38;23.38;;;15.93;;
36659;SDS011;22654;51.054;3.654;2022-12-18T11:30:47;21.67;;;16.88;;
36659;SDS011;22654;51.054;3.654;2022-12-18T11:32:56;21.65;;;15.90;;
36659;SDS011;22654;51.054;3.654;2022-12-18T11:41:15;23.90;;;16.92;;
36659;SDS011;22654;51.054;3.654;2022-12-18T11:43:49;22.25;;;15.77;;
36659;SDS011;22654;51.054;3.654;2022-12-18T11:46:43;20.67;;;16.30;;
36659;SDS011;22654;51.054;3.654;2022-12-18T11:49:12;24.00;;;16.30;;
36659;SDS011;22654;51.054;3.654;2022-12-18T11:51:46;23.30;;;16.85;;
36659;SDS011;22654;51.054;3.654;2022-12-18T11:54:15;23.75;;;16.60;;
36659;SDS011;22654;51.054;3.654;2022-12-18T11:56:49;25.58;;;17.17;;
36659;SDS011;22654;51.054;3.654;2022-12-18T12:13:10;23.27;;;16.83;;
36659;SDS011;22654;51.054;3.654;2022-12-18T12:15:46;22.77;;;17.45;;
36659;SDS011;22654;51.054;3.654;2022-12-18T12:35:55;26.83;;;17.70;;
36659;SDS011;22654;51.054;3.654;2022-12-18T12:38:45;25.98;;;18.83;;
36659;SDS011;22654;51.054;3.654;2022-12-18T12:41:14;32.15;;;19.48;;
36659;SDS011;22654;51.054;3.654;2022-12-18T12:44:05;28.98;;;19.60;;
36659;SDS011;22654;51.054;3.654;2022-12-18T12:46:36;24.20;;;19.05;;
36659;SDS011;22654;51.054;3.654;2022-12-18T12:49:09;29.65;;;18.52;;
36659;SDS011;22654;51.054;3.654;2022-12-18T12:51:40;28.10;;;19.63;;
36659;SDS011;22654;51.054;3.654;2022-12-18T12:54:12;30.08;;;19.35;;
36659;SDS011;22654;51.054;3.654;2022-12-18T12:56:57;28.17;;;18.70;;
36659;SDS011;22654;51.054;3.654;2022-12-18T13:02:22;31.77;;;21.13;;
36659;SDS011;22654;51.054;3.654;2022-12-18T13:07:59;30.15;;;21.58;;
36659;SDS011;22654;51.054;3.654;2022-12-18T13:10:32;32.67;;;21.45;;
36659;SDS011;22654;51.054;3.654;2022-12-18T13:28:18;36.63;;;22.67;;
36659;SDS011;22654;51.054;3.654;2022-12-18T13:30:58;34.15;;;22.15;;
36659;SDS011;22654;51.054;3.654;2022-12-18T13:36:01;37.00;;;23.48;;
36659;SDS011;22654;51.054;3.654;2022-12-18T13:38:37;35.67;;;22.33;;
36659;SDS011;22654;51.054;3.654;2022-12-18T13:43:42;40.28;;;24.33;;
36659;SDS011;22654;51.054;3.654;2022-12-18T13:49:19;34.42;;;22.50;;
36659;SDS011;22654;51.054;3.654;2022-12-18T13:51:52;37.17;;;23.63;;
36659;SDS011;22654;51.054;3.654;2022-12-18T13:54:39;33.92;;;22.15;;
36659;SDS011;22654;51.054;3.654;2022-12-18T13:57:24;35.17;;;22.95;;
36659;SDS011;22654;51.054;3.654;2022-12-18T13:59:59;32.75;;;21.85;;
36659;SDS011;22654;51.054;3.654;2022-12-18T14:02:44;37.80;;;21.92;;
36659;SDS011;22654;51.054;3.654;2022-12-18T14:05:32;33.33;;;24.10;;
36659;SDS011;22654;51.054;3.654;2022-12-18T14:08:06;35.65;;;23.65;;
36659;SDS011;22654;51.054;3.654;2022-12-18T14:10:39;35.05;;;22.27;;
36659;SDS011;22654;51.054;3.654;2022-12-18T14:13:10;37.70;;;23.15;;
36659;SDS011;22654;51.054;3.654;2022-12-18T14:15:43;36.08;;;22.75;;
36659;SDS011;22654;51.054;3.654;2022-12-18T14:18:17;35.88;;;24.02;;
36659;SDS011;22654;51.054;3.654;2022-12-18T14:20:50;36.97;;;24.27;;
36659;SDS011;22654;51.054;3.654;2022-12-18T14:28:54;35.08;;;23.05;;
36659;SDS011;22654;51.054;3.654;2022-12-18T14:31:24;41.20;;;24.40;;
36659;SDS011;22654;51.054;3.654;2022-12-18T14:33:52;35.75;;;23.52;;
36659;SDS011;22654;51.054;3.654;2022-12-18T14:36:22;37.35;;;25.00;;
36659;SDS011;22654;51.054;3.654;2022-12-18T14:38:50;37.72;;;24.20;;
36659;SDS011;22654;51.054;3.654;2022-12-18T14:41:18;39.60;;;24.63;;
36659;SDS011;22654;51.054;3.654;2022-12-18T14:43:50;40.95;;;25.02;;
36659;SDS011;22654;51.054;3.654;2022-12-18T14:46:32;48.28;;;25.45;;
36659;SDS011;22654;51.054;3.654;2022-12-18T14:49:03;40.10;;;23.27;;
36659;SDS011;22654;51.054;3.654;2022-12-18T14:51:42;34.58;;;20.83;;
36659;SDS011;22654;51.054;3.654;2022-12-18T14:54:23;37.50;;;24.17;;
36659;SDS011;22654;51.054;3.654;2022-12-18T14:57:32;33.58;;;21.73;;
36659;SDS011;22654;51.054;3.654;2022-12-18T14:59:48;40.00;;;25.02;;
36659;SDS011;22654;51.054;3.654;2022-12-18T15:02:19;37.38;;;24.08;;
36659;SDS011;22654;51.054;3.654;2022-12-18T15:05:03;41.90;;;24.42;;
36659;SDS011;22654;51.054;3.654;2022-12-18T15:07:39;37.15;;;23.35;;
36659;SDS011;22654;51.054;3.654;2022-12-18T15:12:41;39.10;;;23.33;;
36659;SDS011;22654;51.054;3.654;2022-12-18T15:23:48;37.80;;;23.55;;
36659;SDS011;22654;51.054;3.654;2022-12-18T15:26:17;33.35;;;21.70;;
36659;SDS011;22654;51.054;3.654;2022-12-18T15:28:46;34.67;;;21.67;;
36659;SDS011;22654;51.054;3.654;2022-12-18T15:33:43;41.85;;;23.75;;
36659;SDS011;22654;51.054;3.654;2022-12-18T15:36:24;36.33;;;23.48;;
36659;SDS011;22654;51.054;3.654;2022-12-18T15:38:54;38.55;;;23.65;;
36659;SDS011;22654;51.054;3.654;2022-12-18T15:41:21;36.05;;;22.65;;
36659;SDS011;22654;51.054;3.654;2022-12-18T15:43:49;38.28;;;23.77;;
36659;SDS011;22654;51.054;3.654;2022-12-18T15:46:17;37.53;;;25.13;;
36659;SDS011;22654;51.054;3.654;2022-12-18T15:48:45;43.20;;;26.30;;
36659;SDS011;22654;51.054;3.654;2022-12-18T15:51:33;40.30;;;25.90;;
36659;SDS011;22654;51.054;3.654;2022-12-18T15:54:02;41.45;;;27.00;;
36659;SDS011;22654;51.054;3.654;2022-12-18T15:56:31;39.17;;;25.90;;
36659;SDS011;22654;51.054;3.654;2022-12-18T15:59:16;38.67;;;26.00;;
36659;SDS011;22654;51.054;3.654;2022-12-18T16:01:47;40.95;;;24.52;;
36659;SDS011;22654;51.054;3.654;2022-12-18T16:04:16;43.28;;;26.42;;
36659;SDS011;22654;51.054;3.654;2022-12-18T16:06:46;36.90;;;23.83;;
36659;SDS011;22654;51.054;3.654;2022-12-18T16:09:13;41.22;;;24.05;;
36659;SDS011;22654;51.054;3.654;2022-12-18T16:11:39;42.78;;;26.45;;
36659;SDS011;22654;51.054;3.654;2022-12-18T16:14:23;40.28;;;23.90;;
36659;SDS011;22654;51.054;3.654;2022-12-18T16:16:57;41.10;;;23.52;;
36659;SDS011;22654;51.054;3.654;2022-12-18T16:19:25;41.65;;;24.70;;
36659;SDS011;22654;51.054;3.654;2022-12-18T16:21:52;39.85;;;24.90;;
36659;SDS011;22654;51.054;3.654;2022-12-18T16:24:21;42.05;;;23.75;;
36659;SDS011;22654;51.054;3.654;2022-12-18T16:26:49;39.90;;;23.83;;
36659;SDS011;22654;51.054;3.654;2022-12-18T16:29:19;42.65;;;25.55;;
36659;SDS011;22654;51.054;3.654;2022-12-18T16:31:52;37.90;;;24.27;;
36659;SDS011;22654;51.054;3.654;2022-12-18T16:34:24;34.03;;;21.85;;
36659;SDS011;22654;51.054;3.654;2022-12-18T16:36:56;38.00;;;23.40;;
36659;SDS011;22654;51.054;3.654;2022-12-18T16:39:25;39.30;;;23.88;;
36659;SDS011;22654;51.054;3.654;2022-12-18T16:41:51;43.45;;;24.30;;
36659;SDS011;22654;51.054;3.654;2022-12-18T16:44:17;42.15;;;24.23;;
36659;SDS011;22654;51.054;3.654;2022-12-18T16:46:43;39.60;;;23.70;;
36659;SDS011;22654;51.054;3.654;2022-12-18T16:49:13;40.63;;;25.55;;
36659;SDS011;22654;51.054;3.654;2022-12-18T16:51:39;41.33;;;24.45;;
36659;SDS011;22654;51.054;3.654;2022-12-18T16:54:05;40.63;;;22.48;;
36659;SDS011;22654;51.054;3.654;2022-12-18T16:56:31;39.72;;;24.40;;
36659;SDS011;22654;51.054;3.654;2022-12-18T16:58:58;39.70;;;25.90;;
36659;SDS011;22654;51.054;3.654;2022-12-18T17:01:26;37.72;;;23.35;;
36659;SDS011;22654;51.054;3.654;2022-12-18T17:03:57;41.22;;;26.05;;
36659;SDS011;22654;51.054;3.654;2022-12-18T17:06:29;42.53;;;26.02;;